Air Park, Nebraska
Current Conditions -  °F | °C
As of 2:54 PM on Monday 24 Nov 2014 (Local Time) from KLNK Reporting Station
Clear Clear  
Wind Chill: 28°   Ceiling: Unl
Heat Index: 39°   Visibility: 10mi
Dew Point: 13°   Wind: 23mph
Humidity: 34%   Direction: 320°NW
Pressure: 29.86"   Gusts: 32mph
Location:  40.8731°N, 96.8015°W
Report Text: KLNK 242054Z 32020G28KT 10SM CLR 04/M11 A2986 RMK AO2 PK WND 30029/2003 SLP119 T00391106 53023
Loading
Personal Weather Stations






























Interactive Weather Map New forecast layout! Learn more

10-Day Weather Forecast

Advertisements
Track Severe Weather on mobile